PWSweather.com
Personal Weather Stations
Station Observations
VAB41
Cheltenham Square, Virginia Beach, VA 23454

Cheltenham SquareVirginia Beach, VA 23454

Lat: 36.832882, Lon: -76.054038

Elevation: 12

Station Type: Ambient WS 2080

Latest ConditionsUpdated 11:15:00 PM EST Tuesday, Mar 3, 2015
Currently Today's Max Today's Min Today's Average
Temperature 45.7°F7.6°C 45.7°F7.6°C 27.5°F-2.5°C 36.3°F2.4°C
Dew Point 43.5°F6.4°C 43.5°F6.4°C 16.2°F-8.8°C 26.5°F-3.1°C
Winds 4.5 mph S7.2 kmh S 7.6 mph SW12.2 kmh SW - 1.3 mph 2.1 kmh
Wind Gusts 10.7 mph17.2 kmh 13.0 mph20.9 kmh - -
Humidity 92% 92% 57% 68%
Pressure 30.19 in1022.4 mb 30.67 in1038.6 mb 30.18 in1022.0 mb -
Hour Temp Dew Point Humidity Winds Wind Gusts Pressure Precip Precip Rate Daily Precip Total
11:15 PM 45.7°F7.6°C 43.5°F6.4°C 92% 4.5 mph S7.2 kmh S 10.7 mph17.2 kmh 30.19 in1022.4 mb 0.00 in0.0 mm 0.00 in/hr0.0 mm/hr 0.00 in0.0 mm
11:10 PM 45.7°F7.6°C 43.5°F6.4°C 92% 5.4 mph S8.7 kmh S 13.0 mph20.9 kmh 30.18 in1022.0 mb 0.00 in0.0 mm 0.00 in/hr0.0 mm/hr 0.00 in0.0 mm
11:05 PM 45.7°F7.6°C 43.2°F6.2°C 91% 5.4 mph S8.7 kmh S 13.0 mph20.9 kmh 30.18 in1022.0 mb 0.00 in0.0 mm 0.00 in/hr0.0 mm/hr 0.00 in0.0 mm
11:00 PM 45.5°F7.5°C 42.7°F5.9°C 90% 3.1 mph S5.0 kmh S 9.8 mph15.8 kmh 30.18 in1022.0 mb 0.00 in0.0 mm 0.00 in/hr0.0 mm/hr 0.00 in0.0 mm
10:55 PM 45.3°F7.4°C 42.6°F5.9°C 90% 1.6 mph S2.6 kmh S 8.3 mph13.4 kmh 30.18 in1022.0 mb 0.00 in0.0 mm 0.00 in/hr0.0 mm/hr 0.00 in0.0 mm
10:50 PM 45.1°F7.3°C 42.1°F5.6°C 89% 4.5 mph S7.2 kmh S 11.4 mph18.3 kmh 30.18 in1022.0 mb 0.00 in0.0 mm 0.00 in/hr0.0 mm/hr 0.00 in0.0 mm
10:45 PM 45.1°F7.3°C 42.1°F5.6°C 89% 3.8 mph SSW6.1 kmh SSW 11.4 mph18.3 kmh 30.19 in1022.4 mb 0.00 in0.0 mm 0.00 in/hr0.0 mm/hr 0.00 in0.0 mm
10:40 PM 45.1°F7.3°C 42.1°F5.6°C 89% 6.9 mph SW11.1 kmh SW 11.4 mph18.3 kmh 30.20 in1022.7 mb 0.00 in0.0 mm 0.00 in/hr0.0 mm/hr 0.00 in0.0 mm
10:35 PM 45.0°F7.2°C 41.6°F5.3°C 88% 7.6 mph SW12.2 kmh SW 9.8 mph15.8 kmh 30.21 in1023.0 mb 0.00 in0.0 mm 0.00 in/hr0.0 mm/hr 0.00 in0.0 mm
10:30 PM 45.0°F7.2°C 41.6°F5.3°C 88% 6.9 mph S11.1 kmh S 9.2 mph14.8 kmh 30.21 in1023.0 mb 0.00 in0.0 mm 0.00 in/hr0.0 mm/hr 0.00 in0.0 mm
10:25 PM 45.0°F7.2°C 41.6°F5.3°C 88% 4.5 mph SSW7.2 kmh SSW 9.2 mph14.8 kmh 30.21 in1023.0 mb 0.00 in0.0 mm 0.00 in/hr0.0 mm/hr 0.00 in0.0 mm
10:20 PM 45.0°F7.2°C 41.6°F5.3°C 88% 4.5 mph S7.2 kmh S 8.3 mph13.4 kmh 30.21 in1023.0 mb 0.00 in0.0 mm 0.00 in/hr0.0 mm/hr 0.00 in0.0 mm
10:15 PM 45.0°F7.2°C 41.6°F5.3°C 88% 4.5 mph S7.2 kmh S 8.3 mph13.4 kmh 30.21 in1023.0 mb 0.00 in0.0 mm 0.00 in/hr0.0 mm/hr 0.00 in0.0 mm
10:10 PM 45.1°F7.3°C 41.8°F5.4°C 88% 3.8 mph SW6.1 kmh SW 9.2 mph14.8 kmh 30.21 in1023.0 mb 0.00 in0.0 mm 0.00 in/hr0.0 mm/hr 0.00 in0.0 mm
10:05 PM 45.0°F7.2°C 41.6°F5.3°C 88% 6.0 mph SW9.7 kmh SW 9.2 mph14.8 kmh 30.21 in1023.0 mb 0.00 in0.0 mm 0.00 in/hr0.0 mm/hr 0.00 in0.0 mm
10:00 PM 45.0°F7.2°C 41.6°F5.3°C 88% 3.8 mph SSW6.1 kmh SSW 8.3 mph13.4 kmh 30.21 in1023.0 mb 0.00 in0.0 mm 0.00 in/hr0.0 mm/hr 0.00 in0.0 mm
09:55 PM 44.8°F7.1°C 41.2°F5.1°C 87% 3.8 mph S6.1 kmh S 7.6 mph12.2 kmh 30.22 in1023.4 mb 0.00 in0.0 mm 0.00 in/hr0.0 mm/hr 0.00 in0.0 mm
09:50 PM 44.6°F7.0°C 40.7°F4.8°C 86% 2.2 mph S3.5 kmh S 7.6 mph12.2 kmh 30.22 in1023.4 mb 0.00 in0.0 mm 0.00 in/hr0.0 mm/hr 0.00 in0.0 mm
09:45 PM 44.6°F7.0°C 40.4°F4.7°C 85% 3.1 mph S5.0 kmh S 8.3 mph13.4 kmh 30.21 in1023.0 mb 0.00 in0.0 mm 0.00 in/hr0.0 mm/hr 0.00 in0.0 mm
09:40 PM 44.2°F6.8°C 39.7°F4.3°C 84% 3.8 mph SSW6.1 kmh SSW 8.3 mph13.4 kmh 30.22 in1023.4 mb 0.00 in0.0 mm 0.00 in/hr0.0 mm/hr 0.00 in0.0 mm
09:35 PM 44.1°F6.7°C 39.5°F4.2°C 84% 2.2 mph SW3.5 kmh SW 7.6 mph12.2 kmh 30.22 in1023.4 mb 0.00 in0.0 mm 0.00 in/hr0.0 mm/hr 0.00 in0.0 mm
09:30 PM 43.9°F6.6°C 39.1°F3.9°C 83% 3.8 mph WSW6.1 kmh WSW 9.8 mph15.8 kmh 30.22 in1023.4 mb 0.00 in0.0 mm 0.00 in/hr0.0 mm/hr 0.00 in0.0 mm
09:25 PM 43.7°F6.5°C 38.6°F3.7°C 82% 2.2 mph SW3.5 kmh SW 9.8 mph15.8 kmh 30.22 in1023.4 mb 0.00 in0.0 mm 0.00 in/hr0.0 mm/hr 0.00 in0.0 mm
09:20 PM 43.3°F6.3°C 37.9°F3.3°C 81% 5.4 mph SSW8.7 kmh SSW 11.4 mph18.3 kmh 30.22 in1023.4 mb 0.00 in0.0 mm 0.00 in/hr0.0 mm/hr 0.00 in0.0 mm
09:15 PM 43.0°F6.1°C 37.2°F2.9°C 80% 3.1 mph S5.0 kmh S 11.4 mph18.3 kmh 30.22 in1023.4 mb 0.00 in0.0 mm 0.00 in/hr0.0 mm/hr 0.00 in0.0 mm
09:10 PM 43.0°F6.1°C 37.2°F2.9°C 80% 4.5 mph S7.2 kmh S 8.3 mph13.4 kmh 30.22 in1023.4 mb 0.00 in0.0 mm 0.00 in/hr0.0 mm/hr 0.00 in0.0 mm
09:05 PM 42.8°F6.0°C 36.7°F2.6°C 79% 3.1 mph SW5.0 kmh SW 6.9 mph11.1 kmh 30.22 in1023.4 mb 0.00 in0.0 mm 0.00 in/hr0.0 mm/hr 0.00 in0.0 mm
09:00 PM 42.8°F6.0°C 36.7°F2.6°C 79% 3.8 mph SW6.1 kmh SW 9.2 mph14.8 kmh 30.22 in1023.4 mb 0.00 in0.0 mm 0.00 in/hr0.0 mm/hr 0.00 in0.0 mm
08:55 PM 42.6°F5.9°C 36.6°F2.6°C 79% 6.0 mph SW9.7 kmh SW 9.8 mph15.8 kmh 30.22 in1023.4 mb 0.00 in0.0 mm 0.00 in/hr0.0 mm/hr 0.00 in0.0 mm
08:50 PM 42.6°F5.9°C 36.6°F2.6°C 79% 1.6 mph SSW2.6 kmh SSW 9.8 mph15.8 kmh 30.22 in1023.4 mb 0.00 in0.0 mm 0.00 in/hr0.0 mm/hr 0.00 in0.0 mm
08:45 PM 42.6°F5.9°C 36.6°F2.6°C 79% 4.5 mph SSE7.2 kmh SSE 11.4 mph18.3 kmh 30.23 in1023.7 mb 0.00 in0.0 mm 0.00 in/hr0.0 mm/hr 0.00 in0.0 mm
08:40 PM 42.6°F5.9°C 36.6°F2.6°C 79% 3.8 mph SSE6.1 kmh SSE 11.4 mph18.3 kmh 30.23 in1023.7 mb 0.00 in0.0 mm 0.00 in/hr0.0 mm/hr 0.00 in0.0 mm
08:35 PM 42.4°F5.8°C 36.1°F2.3°C 78% 2.2 mph S3.5 kmh S 8.3 mph13.4 kmh 30.23 in1023.7 mb 0.00 in0.0 mm 0.00 in/hr0.0 mm/hr 0.00 in0.0 mm
08:30 PM 42.4°F5.8°C 36.1°F2.3°C 78% 3.1 mph SW5.0 kmh SW 7.6 mph12.2 kmh 30.24 in1024.0 mb 0.00 in0.0 mm 0.00 in/hr0.0 mm/hr 0.00 in0.0 mm
08:25 PM 42.4°F5.8°C 35.8°F2.1°C 77% 2.2 mph SW3.5 kmh SW 8.3 mph13.4 kmh 30.24 in1024.0 mb 0.00 in0.0 mm 0.00 in/hr0.0 mm/hr 0.00 in0.0 mm
08:20 PM 42.3°F5.7°C 35.6°F2.0°C 77% 6.0 mph WSW9.7 kmh WSW 8.3 mph13.4 kmh 30.24 in1024.0 mb 0.00 in0.0 mm 0.00 in/hr0.0 mm/hr 0.00 in0.0 mm
08:15 PM 42.3°F5.7°C 35.6°F2.0°C 77% 3.1 mph SW5.0 kmh SW 6.9 mph11.1 kmh 30.23 in1023.7 mb 0.00 in0.0 mm 0.00 in/hr0.0 mm/hr 0.00 in0.0 mm
08:10 PM 42.1°F5.6°C 35.1°F1.7°C 76% 3.8 mph S6.1 kmh S 6.9 mph11.1 kmh 30.23 in1023.7 mb 0.00 in0.0 mm 0.00 in/hr0.0 mm/hr 0.00 in0.0 mm
08:05 PM 42.1°F5.6°C 35.1°F1.7°C 76% 1.6 mph S2.6 kmh S 7.6 mph12.2 kmh 30.23 in1023.7 mb 0.00 in0.0 mm 0.00 in/hr0.0 mm/hr 0.00 in0.0 mm
08:00 PM 42.1°F5.6°C 34.7°F1.5°C 75% 1.6 mph S2.6 kmh S 8.3 mph13.4 kmh 30.23 in1023.7 mb 0.00 in0.0 mm 0.00 in/hr0.0 mm/hr 0.00 in0.0 mm
07:55 PM 41.9°F5.5°C 34.6°F1.4°C 75% 3.8 mph SSW6.1 kmh SSW 8.3 mph13.4 kmh 30.24 in1024.0 mb 0.00 in0.0 mm 0.00 in/hr0.0 mm/hr 0.00 in0.0 mm
07:50 PM 41.9°F5.5°C 34.2°F1.2°C 74% 3.8 mph S6.1 kmh S 5.4 mph8.7 kmh 30.25 in1024.4 mb 0.00 in0.0 mm 0.00 in/hr0.0 mm/hr 0.00 in0.0 mm
07:45 PM 41.7°F5.4°C 34.1°F1.2°C 74% 0.7 mph SSW1.1 kmh SSW 4.5 mph7.2 kmh 30.25 in1024.4 mb 0.00 in0.0 mm 0.00 in/hr0.0 mm/hr 0.00 in0.0 mm
07:40 PM 41.7°F5.4°C 34.1°F1.2°C 74% 1.6 mph SSW2.6 kmh SSW 4.5 mph7.2 kmh 30.25 in1024.4 mb 0.00 in0.0 mm 0.00 in/hr0.0 mm/hr 0.00 in0.0 mm
07:35 PM 41.7°F5.4°C 33.7°F0.9°C 73% 0.7 mph S1.1 kmh S 3.8 mph6.1 kmh 30.26 in1024.7 mb 0.00 in0.0 mm 0.00 in/hr0.0 mm/hr 0.00 in0.0 mm
07:30 PM 41.7°F5.4°C 33.7°F0.9°C 73% 0.7 mph SE1.1 kmh SE 4.5 mph7.2 kmh 30.25 in1024.4 mb 0.00 in0.0 mm 0.00 in/hr0.0 mm/hr 0.00 in0.0 mm
07:25 PM 41.5°F5.3°C 33.5°F0.8°C 73% 2.2 mph SE3.5 kmh SE 4.5 mph7.2 kmh 30.24 in1024.0 mb 0.00 in0.0 mm 0.00 in/hr0.0 mm/hr 0.00 in0.0 mm
07:20 PM 41.5°F5.3°C 33.5°F0.8°C 73% 1.6 mph S2.6 kmh S 4.5 mph7.2 kmh 30.25 in1024.4 mb 0.00 in0.0 mm 0.00 in/hr0.0 mm/hr 0.00 in0.0 mm
07:15 PM 41.5°F5.3°C 33.5°F0.8°C 73% 2.2 mph S3.5 kmh S 4.5 mph7.2 kmh 30.27 in1025.1 mb 0.00 in0.0 mm 0.00 in/hr0.0 mm/hr 0.00 in0.0 mm
07:10 PM 41.5°F5.3°C 33.5°F0.8°C 73% 2.2 mph SW3.5 kmh SW 4.5 mph7.2 kmh 30.27 in1025.1 mb 0.00 in0.0 mm 0.00 in/hr0.0 mm/hr 0.00 in0.0 mm
07:05 PM 41.5°F5.3°C 33.5°F0.8°C 73% 2.2 mph SW3.5 kmh SW 4.5 mph7.2 kmh 30.28 in1025.4 mb 0.00 in0.0 mm 0.00 in/hr0.0 mm/hr 0.00 in0.0 mm
07:00 PM 41.4°F5.2°C 33.4°F0.8°C 73% 0.7 mph SSW1.1 kmh SSW 4.5 mph7.2 kmh 30.28 in1025.4 mb 0.00 in0.0 mm 0.00 in/hr0.0 mm/hr 0.00 in0.0 mm
06:55 PM 41.4°F5.2°C 33.4°F0.8°C 73% 2.2 mph S3.5 kmh S 5.4 mph8.7 kmh 30.28 in1025.4 mb 0.00 in0.0 mm 0.00 in/hr0.0 mm/hr 0.00 in0.0 mm
06:50 PM 41.2°F5.1°C 33.2°F0.7°C 73% 2.2 mph S3.5 kmh S 5.4 mph8.7 kmh 30.29 in1025.7 mb 0.00 in0.0 mm 0.00 in/hr0.0 mm/hr 0.00 in0.0 mm
06:45 PM 41.2°F5.1°C 33.2°F0.7°C 73% 1.6 mph SSW2.6 kmh SSW 3.8 mph6.1 kmh 30.29 in1025.7 mb 0.00 in0.0 mm 0.00 in/hr0.0 mm/hr 0.00 in0.0 mm
06:40 PM 41.0°F5.0°C 33.0°F0.6°C 73% 0.7 mph SW1.1 kmh SW 3.8 mph6.1 kmh 30.29 in1025.7 mb 0.00 in0.0 mm 0.00 in/hr0.0 mm/hr 0.00 in0.0 mm
06:35 PM 41.0°F5.0°C 33.0°F0.6°C 73% 0.7 mph SSE1.1 kmh SSE 3.1 mph5.0 kmh 30.29 in1025.7 mb 0.00 in0.0 mm 0.00 in/hr0.0 mm/hr 0.00 in0.0 mm
06:30 PM 40.8°F4.9°C 33.2°F0.7°C 74% 0.7 mph SSE1.1 kmh SSE 3.1 mph5.0 kmh 30.29 in1025.7 mb 0.00 in0.0 mm 0.00 in/hr0.0 mm/hr 0.00 in0.0 mm
06:25 PM 40.8°F4.9°C 33.2°F0.7°C 74% 1.6 mph SSE2.6 kmh SSE 3.1 mph5.0 kmh 30.29 in1025.7 mb 0.00 in0.0 mm 0.00 in/hr0.0 mm/hr 0.00 in0.0 mm
06:20 PM 40.8°F4.9°C 33.2°F0.7°C 74% 0.7 mph SE1.1 kmh SE 3.1 mph5.0 kmh 30.30 in1026.1 mb 0.00 in0.0 mm 0.00 in/hr0.0 mm/hr 0.00 in0.0 mm
06:15 PM 41.0°F5.0°C 32.7°F0.4°C 72% 0.7 mph SW1.1 kmh SW 2.2 mph3.5 kmh 30.30 in1026.1 mb 0.00 in0.0 mm 0.00 in/hr0.0 mm/hr 0.00 in0.0 mm
06:10 PM 41.2°F5.1°C 32.5°F0.3°C 71% 0.7 mph WNW1.1 kmh WNW 1.6 mph2.6 kmh 30.31 in1026.4 mb 0.00 in0.0 mm 0.00 in/hr0.0 mm/hr 0.00 in0.0 mm
06:05 PM 41.2°F5.1°C 32.2°F0.1°C 70% Calm Calm 1.6 mph2.6 kmh 30.31 in1026.4 mb 0.00 in0.0 mm 0.00 in/hr0.0 mm/hr 0.00 in0.0 mm
06:00 PM 41.4°F5.2°C 32.3°F0.2°C 70% 0.7 mph SSW1.1 kmh SSW 1.6 mph2.6 kmh 30.31 in1026.4 mb 0.00 in0.0 mm 0.00 in/hr0.0 mm/hr 0.00 in0.0 mm
05:55 PM 41.4°F5.2°C 31.2°F-0.4°C 67% 0.7 mph S1.1 kmh S 2.2 mph3.5 kmh 30.31 in1026.4 mb 0.00 in0.0 mm 0.00 in/hr0.0 mm/hr 0.00 in0.0 mm
05:50 PM 41.4°F5.2°C 31.2°F-0.4°C 67% 0.7 mph SSE1.1 kmh SSE 2.2 mph3.5 kmh 30.31 in1026.4 mb 0.00 in0.0 mm 0.00 in/hr0.0 mm/hr 0.00 in0.0 mm
05:45 PM 41.4°F5.2°C 31.2°F-0.4°C 67% 1.6 mph NE2.6 kmh NE 2.2 mph3.5 kmh 30.31 in1026.4 mb 0.00 in0.0 mm 0.00 in/hr0.0 mm/hr 0.00 in0.0 mm
05:40 PM 41.4°F5.2°C 31.2°F-0.4°C 67% Calm Calm 2.2 mph3.5 kmh 30.31 in1026.4 mb 0.00 in0.0 mm 0.00 in/hr0.0 mm/hr 0.00 in0.0 mm
05:35 PM 41.4°F5.2°C 31.2°F-0.4°C 67% 0.7 mph WSW1.1 kmh WSW 4.5 mph7.2 kmh 30.31 in1026.4 mb 0.00 in0.0 mm 0.00 in/hr0.0 mm/hr 0.00 in0.0 mm
05:30 PM 41.4°F5.2°C 31.2°F-0.4°C 67% 1.6 mph SW2.6 kmh SW 4.5 mph7.2 kmh 30.31 in1026.4 mb 0.00 in0.0 mm 0.00 in/hr0.0 mm/hr 0.00 in0.0 mm
05:25 PM 41.2°F5.1°C 31.1°F-0.5°C 67% Calm Calm 2.2 mph3.5 kmh 30.31 in1026.4 mb 0.00 in0.0 mm 0.00 in/hr0.0 mm/hr 0.00 in0.0 mm
05:20 PM 41.2°F5.1°C 31.1°F-0.5°C 67% 0.7 mph SE1.1 kmh SE 3.1 mph5.0 kmh 30.31 in1026.4 mb 0.00 in0.0 mm 0.00 in/hr0.0 mm/hr 0.00 in0.0 mm
05:15 PM 41.2°F5.1°C 30.7°F-0.7°C 66% Calm Calm 3.1 mph5.0 kmh 30.32 in1026.8 mb 0.00 in0.0 mm 0.00 in/hr0.0 mm/hr 0.00 in0.0 mm
05:10 PM 41.2°F5.1°C 30.7°F-0.7°C 66% 1.6 mph SE2.6 kmh SE 3.1 mph5.0 kmh 30.31 in1026.4 mb 0.00 in0.0 mm 0.00 in/hr0.0 mm/hr 0.00 in0.0 mm
05:05 PM 41.2°F5.1°C 30.7°F-0.7°C 66% 0.7 mph SE1.1 kmh SE 4.5 mph7.2 kmh 30.32 in1026.8 mb 0.00 in0.0 mm 0.00 in/hr0.0 mm/hr 0.00 in0.0 mm
05:00 PM 41.2°F5.1°C 30.3°F-0.9°C 65% 2.2 mph SE3.5 kmh SE 4.5 mph7.2 kmh 30.32 in1026.8 mb 0.00 in0.0 mm 0.00 in/hr0.0 mm/hr 0.00 in0.0 mm
04:55 PM 41.0°F5.0°C 30.2°F-1.0°C 65% 1.6 mph SE2.6 kmh SE 6.9 mph11.1 kmh 30.32 in1026.8 mb 0.00 in0.0 mm 0.00 in/hr0.0 mm/hr 0.00 in0.0 mm
04:50 PM 41.0°F5.0°C 30.2°F-1.0°C 65% 1.6 mph SE2.6 kmh SE 6.9 mph11.1 kmh 30.32 in1026.8 mb 0.00 in0.0 mm 0.00 in/hr0.0 mm/hr 0.00 in0.0 mm
04:45 PM 41.0°F5.0°C 30.2°F-1.0°C 65% 4.5 mph SE7.2 kmh SE 6.9 mph11.1 kmh 30.33 in1027.1 mb 0.00 in0.0 mm 0.00 in/hr0.0 mm/hr 0.00 in0.0 mm
04:40 PM 41.0°F5.0°C 30.2°F-1.0°C 65% 1.6 mph SE2.6 kmh SE 7.6 mph12.2 kmh 30.33 in1027.1 mb 0.00 in0.0 mm 0.00 in/hr0.0 mm/hr 0.00 in0.0 mm
04:35 PM 41.0°F5.0°C 30.2°F-1.0°C 65% 3.1 mph SE5.0 kmh SE 7.6 mph12.2 kmh 30.33 in1027.1 mb 0.00 in0.0 mm 0.00 in/hr0.0 mm/hr 0.00 in0.0 mm
04:30 PM 40.8°F4.9°C 30.4°F-0.9°C 66% 0.7 mph SE1.1 kmh SE 3.1 mph5.0 kmh 30.34 in1027.4 mb 0.00 in0.0 mm 0.00 in/hr0.0 mm/hr 0.00 in0.0 mm
04:25 PM 40.6°F4.8°C 29.8°F-1.2°C 65% 0.7 mph SE1.1 kmh SE 3.8 mph6.1 kmh 30.34 in1027.4 mb 0.00 in0.0 mm 0.00 in/hr0.0 mm/hr 0.00 in0.0 mm
04:20 PM 40.5°F4.7°C 29.6°F-1.3°C 65% 2.2 mph ESE3.5 kmh ESE 3.8 mph6.1 kmh 30.34 in1027.4 mb 0.00 in0.0 mm 0.00 in/hr0.0 mm/hr 0.00 in0.0 mm
04:15 PM 40.3°F4.6°C 29.5°F-1.4°C 65% 0.7 mph ESE1.1 kmh ESE 5.4 mph8.7 kmh 30.34 in1027.4 mb 0.00 in0.0 mm 0.00 in/hr0.0 mm/hr 0.00 in0.0 mm
04:10 PM 39.9°F4.4°C 29.1°F-1.6°C 65% 0.7 mph ESE1.1 kmh ESE 5.4 mph8.7 kmh 30.34 in1027.4 mb 0.00 in0.0 mm 0.00 in/hr0.0 mm/hr 0.00 in0.0 mm
04:05 PM 39.9°F4.4°C 29.1°F-1.6°C 65% 0.7 mph SE1.1 kmh SE 6.0 mph9.7 kmh 30.36 in1028.1 mb 0.00 in0.0 mm 0.00 in/hr0.0 mm/hr 0.00 in0.0 mm
04:00 PM 39.9°F4.4°C 29.1°F-1.6°C 65% 3.1 mph SE5.0 kmh SE 6.0 mph9.7 kmh 30.37 in1028.4 mb 0.00 in0.0 mm 0.00 in/hr0.0 mm/hr 0.00 in0.0 mm
03:55 PM 39.9°F4.4°C 28.7°F-1.8°C 64% 4.5 mph SE7.2 kmh SE 6.9 mph11.1 kmh 30.36 in1028.1 mb 0.00 in0.0 mm 0.00 in/hr0.0 mm/hr 0.00 in0.0 mm
03:50 PM 39.9°F4.4°C 28.7°F-1.8°C 64% 2.2 mph S3.5 kmh S 6.9 mph11.1 kmh 30.36 in1028.1 mb 0.00 in0.0 mm 0.00 in/hr0.0 mm/hr 0.00 in0.0 mm
03:45 PM 40.1°F4.5°C 28.9°F-1.7°C 64% 2.2 mph SSE3.5 kmh SSE 6.9 mph11.1 kmh 30.37 in1028.4 mb 0.00 in0.0 mm 0.00 in/hr0.0 mm/hr 0.00 in0.0 mm
03:40 PM 39.9°F4.4°C 28.7°F-1.8°C 64% 3.1 mph SE5.0 kmh SE 4.5 mph7.2 kmh 30.38 in1028.8 mb 0.00 in0.0 mm 0.00 in/hr0.0 mm/hr 0.00 in0.0 mm
03:35 PM 39.9°F4.4°C 28.7°F-1.8°C 64% 2.2 mph SE3.5 kmh SE 3.8 mph6.1 kmh 30.38 in1028.8 mb 0.00 in0.0 mm 0.00 in/hr0.0 mm/hr 0.00 in0.0 mm
03:30 PM 39.7°F4.3°C 28.6°F-1.9°C 64% 1.6 mph SE2.6 kmh SE 4.5 mph7.2 kmh 30.38 in1028.8 mb 0.00 in0.0 mm 0.00 in/hr0.0 mm/hr 0.00 in0.0 mm
03:25 PM 39.7°F4.3°C 28.6°F-1.9°C 64% 3.1 mph ESE5.0 kmh ESE 4.5 mph7.2 kmh 30.39 in1029.1 mb 0.00 in0.0 mm 0.00 in/hr0.0 mm/hr 0.00 in0.0 mm
03:20 PM 39.4°F4.1°C 28.2°F-2.1°C 64% 1.6 mph ESE2.6 kmh ESE 3.1 mph5.0 kmh 30.40 in1029.5 mb 0.00 in0.0 mm 0.00 in/hr0.0 mm/hr 0.00 in0.0 mm
03:15 PM 39.2°F4.0°C 27.7°F-2.4°C 63% Calm Calm 1.6 mph2.6 kmh 30.41 in1029.8 mb 0.00 in0.0 mm 0.00 in/hr0.0 mm/hr 0.00 in0.0 mm
03:10 PM 39.2°F4.0°C 27.7°F-2.4°C 63% Calm Calm 2.2 mph3.5 kmh 30.42 in1030.1 mb 0.00 in0.0 mm 0.00 in/hr0.0 mm/hr 0.00 in0.0 mm
03:05 PM 39.2°F4.0°C 28.1°F-2.2°C 64% Calm Calm 2.2 mph3.5 kmh 30.42 in1030.1 mb 0.00 in0.0 mm 0.00 in/hr0.0 mm/hr 0.00 in0.0 mm
03:00 PM 39.2°F4.0°C 28.1°F-2.2°C 64% 1.6 mph E2.6 kmh E 3.1 mph5.0 kmh 30.42 in1030.1 mb 0.00 in0.0 mm 0.00 in/hr0.0 mm/hr 0.00 in0.0 mm
02:55 PM 39.2°F4.0°C 28.1°F-2.2°C 64% 1.6 mph E2.6 kmh E 3.1 mph5.0 kmh 30.42 in1030.1 mb 0.00 in0.0 mm 0.00 in/hr0.0 mm/hr 0.00 in0.0 mm
02:50 PM 38.8°F3.8°C 28.1°F-2.2°C 65% 0.7 mph ENE1.1 kmh ENE 2.2 mph3.5 kmh 30.43 in1030.5 mb 0.00 in0.0 mm 0.00 in/hr0.0 mm/hr 0.00 in0.0 mm
02:45 PM 38.7°F3.7°C 27.9°F-2.3°C 65% Calm Calm 3.1 mph5.0 kmh 30.43 in1030.5 mb 0.00 in0.0 mm 0.00 in/hr0.0 mm/hr 0.00 in0.0 mm
02:40 PM 38.5°F3.6°C 27.8°F-2.3°C 65% 1.6 mph E2.6 kmh E 5.4 mph8.7 kmh 30.44 in1030.8 mb 0.00 in0.0 mm 0.00 in/hr0.0 mm/hr 0.00 in0.0 mm
02:35 PM 38.5°F3.6°C 27.8°F-2.3°C 65% 1.6 mph E2.6 kmh E 5.4 mph8.7 kmh 30.44 in1030.8 mb 0.00 in0.0 mm 0.00 in/hr0.0 mm/hr 0.00 in0.0 mm
02:30 PM 38.5°F3.6°C 27.4°F-2.6°C 64% 3.1 mph ESE5.0 kmh ESE 5.4 mph8.7 kmh 30.45 in1031.2 mb 0.00 in0.0 mm 0.00 in/hr0.0 mm/hr 0.00 in0.0 mm
02:25 PM 38.7°F3.7°C 27.6°F-2.4°C 64% 2.2 mph E3.5 kmh E 4.5 mph7.2 kmh 30.45 in1031.2 mb 0.00 in0.0 mm 0.00 in/hr0.0 mm/hr 0.00 in0.0 mm
02:20 PM 38.7°F3.7°C 27.6°F-2.4°C 64% 0.7 mph ENE1.1 kmh ENE 4.5 mph7.2 kmh 30.45 in1031.2 mb 0.00 in0.0 mm 0.00 in/hr0.0 mm/hr 0.00 in0.0 mm
02:15 PM 38.8°F3.8°C 28.1°F-2.2°C 65% 1.6 mph ENE2.6 kmh ENE 3.1 mph5.0 kmh 30.45 in1031.2 mb 0.00 in0.0 mm 0.00 in/hr0.0 mm/hr 0.00 in0.0 mm
02:10 PM 38.8°F3.8°C 27.7°F-2.4°C 64% Calm Calm 3.1 mph5.0 kmh 30.46 in1031.5 mb 0.00 in0.0 mm 0.00 in/hr0.0 mm/hr 0.00 in0.0 mm
02:05 PM 38.7°F3.7°C 27.9°F-2.3°C 65% 1.6 mph NE2.6 kmh NE 3.1 mph5.0 kmh 30.46 in1031.5 mb 0.00 in0.0 mm 0.00 in/hr0.0 mm/hr 0.00 in0.0 mm
02:00 PM 38.7°F3.7°C 27.9°F-2.3°C 65% 1.6 mph NE2.6 kmh NE 3.1 mph5.0 kmh 30.46 in1031.5 mb 0.00 in0.0 mm 0.00 in/hr0.0 mm/hr 0.00 in0.0 mm
01:55 PM 38.1°F3.4°C 27.4°F-2.6°C 65% 0.7 mph NE1.1 kmh NE 3.8 mph6.1 kmh 30.46 in1031.5 mb 0.00 in0.0 mm 0.00 in/hr0.0 mm/hr 0.00 in0.0 mm
01:50 PM 37.9°F3.3°C 26.9°F-2.8°C 64% 1.6 mph NE2.6 kmh NE 3.8 mph6.1 kmh 30.46 in1031.5 mb 0.00 in0.0 mm 0.00 in/hr0.0 mm/hr 0.00 in0.0 mm
01:45 PM 37.8°F3.2°C 26.7°F-2.9°C 64% 0.7 mph NE1.1 kmh NE 3.1 mph5.0 kmh 30.47 in1031.8 mb 0.00 in0.0 mm 0.00 in/hr0.0 mm/hr 0.00 in0.0 mm
01:40 PM 37.8°F3.2°C 27.1°F-2.7°C 65% 1.6 mph ENE2.6 kmh ENE 3.1 mph5.0 kmh 30.48 in1032.2 mb 0.00 in0.0 mm 0.00 in/hr0.0 mm/hr 0.00 in0.0 mm
01:35 PM 37.6°F3.1°C 26.9°F-2.8°C 65% Calm Calm 4.5 mph7.2 kmh 30.48 in1032.2 mb 0.00 in0.0 mm 0.00 in/hr0.0 mm/hr 0.00 in0.0 mm
01:30 PM 37.2°F2.9°C 24.6°F-4.1°C 60% Calm Calm 5.4 mph8.7 kmh 30.48 in1032.2 mb 0.00 in0.0 mm 0.00 in/hr0.0 mm/hr 0.00 in0.0 mm
01:25 PM 37.2°F2.9°C 24.6°F-4.1°C 60% 2.2 mph ENE3.5 kmh ENE 5.4 mph8.7 kmh 30.49 in1032.5 mb 0.00 in0.0 mm 0.00 in/hr0.0 mm/hr 0.00 in0.0 mm
01:20 PM 37.2°F2.9°C 24.6°F-4.1°C 60% 1.6 mph NE2.6 kmh NE 4.5 mph7.2 kmh 30.50 in1032.8 mb 0.00 in0.0 mm 0.00 in/hr0.0 mm/hr 0.00 in0.0 mm
01:15 PM 37.4°F3.0°C 26.4°F-3.1°C 64% 2.2 mph NE3.5 kmh NE 4.5 mph7.2 kmh 30.50 in1032.8 mb 0.00 in0.0 mm 0.00 in/hr0.0 mm/hr 0.00 in0.0 mm
01:10 PM 37.4°F3.0°C 26.4°F-3.1°C 64% 1.6 mph ENE2.6 kmh ENE 5.4 mph8.7 kmh 30.50 in1032.8 mb 0.00 in0.0 mm 0.00 in/hr0.0 mm/hr 0.00 in0.0 mm
01:05 PM 37.4°F3.0°C 26.4°F-3.1°C 64% 0.7 mph E1.1 kmh E 5.4 mph8.7 kmh 30.50 in1032.8 mb 0.00 in0.0 mm 0.00 in/hr0.0 mm/hr 0.00 in0.0 mm
01:00 PM 37.4°F3.0°C 26.4°F-3.1°C 64% 0.7 mph E1.1 kmh E 4.5 mph7.2 kmh 30.52 in1033.5 mb 0.00 in0.0 mm 0.00 in/hr0.0 mm/hr 0.00 in0.0 mm
12:55 PM 37.4°F3.0°C 26.4°F-3.1°C 64% Calm Calm 4.5 mph7.2 kmh 30.52 in1033.5 mb 0.00 in0.0 mm 0.00 in/hr0.0 mm/hr 0.00 in0.0 mm
12:50 PM 37.4°F3.0°C 26.4°F-3.1°C 64% 0.7 mph NE1.1 kmh NE 5.4 mph8.7 kmh 30.53 in1033.9 mb 0.00 in0.0 mm 0.00 in/hr0.0 mm/hr 0.00 in0.0 mm
12:45 PM 37.2°F2.9°C 24.6°F-4.1°C 60% 2.2 mph NE3.5 kmh NE 5.4 mph8.7 kmh 30.53 in1033.9 mb 0.00 in0.0 mm 0.00 in/hr0.0 mm/hr 0.00 in0.0 mm
12:40 PM 37.2°F2.9°C 24.2°F-4.3°C 59% 1.6 mph NE2.6 kmh NE 3.8 mph6.1 kmh 30.54 in1034.2 mb 0.00 in0.0 mm 0.00 in/hr0.0 mm/hr 0.00 in0.0 mm
12:35 PM 37.0°F2.8°C 24.1°F-4.4°C 59% 0.7 mph NE1.1 kmh NE 3.8 mph6.1 kmh 30.55 in1034.5 mb 0.00 in0.0 mm 0.00 in/hr0.0 mm/hr 0.00 in0.0 mm
12:30 PM 37.2°F2.9°C 24.2°F-4.3°C 59% 1.6 mph NE2.6 kmh NE 3.8 mph6.1 kmh 30.56 in1034.9 mb 0.00 in0.0 mm 0.00 in/hr0.0 mm/hr 0.00 in0.0 mm
12:25 PM 37.2°F2.9°C 24.2°F-4.3°C 59% 0.7 mph NE1.1 kmh NE 4.5 mph7.2 kmh 30.57 in1035.2 mb 0.00 in0.0 mm 0.00 in/hr0.0 mm/hr 0.00 in0.0 mm
12:20 PM 37.2°F2.9°C 24.2°F-4.3°C 59% 0.7 mph E1.1 kmh E 5.4 mph8.7 kmh 30.56 in1034.9 mb 0.00 in0.0 mm 0.00 in/hr0.0 mm/hr 0.00 in0.0 mm
12:15 PM 37.4°F3.0°C 26.0°F-3.3°C 63% 1.6 mph E2.6 kmh E 5.4 mph8.7 kmh 30.56 in1034.9 mb 0.00 in0.0 mm 0.00 in/hr0.0 mm/hr 0.00 in0.0 mm
12:10 PM 37.4°F3.0°C 25.6°F-3.6°C 62% 3.1 mph ENE5.0 kmh ENE 4.5 mph7.2 kmh 30.55 in1034.5 mb 0.00 in0.0 mm 0.00 in/hr0.0 mm/hr 0.00 in0.0 mm
12:05 PM 37.4°F3.0°C 25.6°F-3.6°C 62% 1.6 mph ENE2.6 kmh ENE 4.5 mph7.2 kmh 30.55 in1034.5 mb 0.00 in0.0 mm 0.00 in/hr0.0 mm/hr 0.00 in0.0 mm
12:00 PM 37.4°F3.0°C 25.6°F-3.6°C 62% 0.7 mph NE1.1 kmh NE 4.5 mph7.2 kmh 30.56 in1034.9 mb 0.00 in0.0 mm 0.00 in/hr0.0 mm/hr 0.00 in0.0 mm
11:55 AM 37.8°F3.2°C 25.9°F-3.4°C 62% 0.7 mph NE1.1 kmh NE 3.8 mph6.1 kmh 30.57 in1035.2 mb 0.00 in0.0 mm 0.00 in/hr0.0 mm/hr 0.00 in0.0 mm
11:50 AM 38.1°F3.4°C 26.3°F-3.2°C 62% 0.7 mph NE1.1 kmh NE 3.8 mph6.1 kmh 30.59 in1035.9 mb 0.00 in0.0 mm 0.00 in/hr0.0 mm/hr 0.00 in0.0 mm
11:45 AM 38.3°F3.5°C 26.4°F-3.1°C 62% 0.7 mph NE1.1 kmh NE 3.8 mph6.1 kmh 30.59 in1035.9 mb 0.00 in0.0 mm 0.00 in/hr0.0 mm/hr 0.00 in0.0 mm
11:40 AM 38.1°F3.4°C 25.9°F-3.4°C 61% 2.2 mph NE3.5 kmh NE 3.8 mph6.1 kmh 30.59 in1035.9 mb 0.00 in0.0 mm 0.00 in/hr0.0 mm/hr 0.00 in0.0 mm
11:35 AM 38.1°F3.4°C 25.9°F-3.4°C 61% 0.7 mph NNE1.1 kmh NNE 3.1 mph5.0 kmh 30.60 in1036.2 mb 0.00 in0.0 mm 0.00 in/hr0.0 mm/hr 0.00 in0.0 mm
11:30 AM 38.5°F3.6°C 26.6°F-3.0°C 62% 1.6 mph NNE2.6 kmh NNE 3.8 mph6.1 kmh 30.61 in1036.6 mb 0.00 in0.0 mm 0.00 in/hr0.0 mm/hr 0.00 in0.0 mm
11:25 AM 38.3°F3.5°C 26.4°F-3.1°C 62% 0.7 mph N1.1 kmh N 4.5 mph7.2 kmh 30.61 in1036.6 mb 0.00 in0.0 mm 0.00 in/hr0.0 mm/hr 0.00 in0.0 mm
11:20 AM 37.9°F3.3°C 26.1°F-3.3°C 62% 3.1 mph N5.0 kmh N 4.5 mph7.2 kmh 30.61 in1036.6 mb 0.00 in0.0 mm 0.00 in/hr0.0 mm/hr 0.00 in0.0 mm
11:15 AM 37.8°F3.2°C 25.5°F-3.6°C 61% 0.7 mph NNE1.1 kmh NNE 4.5 mph7.2 kmh 30.61 in1036.6 mb 0.00 in0.0 mm 0.00 in/hr0.0 mm/hr 0.00 in0.0 mm
11:10 AM 37.9°F3.3°C 25.7°F-3.5°C 61% 1.6 mph NNE2.6 kmh NNE 4.5 mph7.2 kmh 30.62 in1036.9 mb 0.00 in0.0 mm 0.00 in/hr0.0 mm/hr 0.00 in0.0 mm
11:05 AM 37.9°F3.3°C 26.1°F-3.3°C 62% 0.7 mph NNE1.1 kmh NNE 4.5 mph7.2 kmh 30.61 in1036.6 mb 0.00 in0.0 mm 0.00 in/hr0.0 mm/hr 0.00 in0.0 mm
11:00 AM 37.9°F3.3°C 26.1°F-3.3°C 62% 2.2 mph NNE3.5 kmh NNE 3.8 mph6.1 kmh 30.62 in1036.9 mb 0.00 in0.0 mm 0.00 in/hr0.0 mm/hr 0.00 in0.0 mm
10:55 AM 37.9°F3.3°C 26.1°F-3.3°C 62% 0.7 mph NE1.1 kmh NE 4.5 mph7.2 kmh 30.61 in1036.6 mb 0.00 in0.0 mm 0.00 in/hr0.0 mm/hr 0.00 in0.0 mm
10:50 AM 37.9°F3.3°C 26.1°F-3.3°C 62% 1.6 mph NE2.6 kmh NE 4.5 mph7.2 kmh 30.61 in1036.6 mb 0.00 in0.0 mm 0.00 in/hr0.0 mm/hr 0.00 in0.0 mm
10:45 AM 37.6°F3.1°C 25.8°F-3.4°C 62% 1.6 mph NNE2.6 kmh NNE 4.5 mph7.2 kmh 30.61 in1036.6 mb 0.00 in0.0 mm 0.00 in/hr0.0 mm/hr 0.00 in0.0 mm
10:40 AM 37.2°F2.9°C 23.8°F-4.6°C 58% 1.6 mph NNE2.6 kmh NNE 5.4 mph8.7 kmh 30.62 in1036.9 mb 0.00 in0.0 mm 0.00 in/hr0.0 mm/hr 0.00 in0.0 mm
10:35 AM 37.2°F2.9°C 23.8°F-4.6°C 58% 3.1 mph NNE5.0 kmh NNE 5.4 mph8.7 kmh 30.61 in1036.6 mb 0.00 in0.0 mm 0.00 in/hr0.0 mm/hr 0.00 in0.0 mm
10:30 AM 37.0°F2.8°C 23.2°F-4.9°C 57% 1.6 mph NE2.6 kmh NE 3.8 mph6.1 kmh 30.63 in1037.3 mb 0.00 in0.0 mm 0.00 in/hr0.0 mm/hr 0.00 in0.0 mm
10:25 AM 37.4°F3.0°C 25.2°F-3.8°C 61% 1.6 mph NNE2.6 kmh NNE 3.8 mph6.1 kmh 30.63 in1037.3 mb 0.00 in0.0 mm 0.00 in/hr0.0 mm/hr 0.00 in0.0 mm
10:20 AM 37.6°F3.1°C 25.4°F-3.7°C 61% 1.6 mph NNE2.6 kmh NNE 3.8 mph6.1 kmh 30.64 in1037.6 mb 0.00 in0.0 mm 0.00 in/hr0.0 mm/hr 0.00 in0.0 mm
10:15 AM 37.8°F3.2°C 25.9°F-3.4°C 62% 1.6 mph NE2.6 kmh NE 5.4 mph8.7 kmh 30.65 in1037.9 mb 0.00 in0.0 mm 0.00 in/hr0.0 mm/hr 0.00 in0.0 mm
10:10 AM 37.6°F3.1°C 25.4°F-3.7°C 61% 0.7 mph NE1.1 kmh NE 5.4 mph8.7 kmh 30.65 in1037.9 mb 0.00 in0.0 mm 0.00 in/hr0.0 mm/hr 0.00 in0.0 mm
10:05 AM 37.6°F3.1°C 25.4°F-3.7°C 61% 3.1 mph NE5.0 kmh NE 5.4 mph8.7 kmh 30.65 in1037.9 mb 0.00 in0.0 mm 0.00 in/hr0.0 mm/hr 0.00 in0.0 mm
10:00 AM 37.4°F3.0°C 25.6°F-3.6°C 62% 1.6 mph NNE2.6 kmh NNE 5.4 mph8.7 kmh 30.65 in1037.9 mb 0.00 in0.0 mm 0.00 in/hr0.0 mm/hr 0.00 in0.0 mm
09:55 AM 37.0°F2.8°C 23.7°F-4.6°C 58% Calm Calm 5.4 mph8.7 kmh 30.67 in1038.6 mb 0.00 in0.0 mm 0.00 in/hr0.0 mm/hr 0.00 in0.0 mm
09:50 AM 36.9°F2.7°C 23.5°F-4.7°C 58% 1.6 mph NNE2.6 kmh NNE 3.8 mph6.1 kmh 30.67 in1038.6 mb 0.00 in0.0 mm 0.00 in/hr0.0 mm/hr 0.00 in0.0 mm
09:45 AM 36.3°F2.4°C 22.6°F-5.2°C 57% 0.7 mph NNE1.1 kmh NNE 4.5 mph7.2 kmh 30.66 in1038.3 mb 0.00 in0.0 mm 0.00 in/hr0.0 mm/hr 0.00 in0.0 mm
09:40 AM 36.3°F2.4°C 22.6°F-5.2°C 57% 2.2 mph NNE3.5 kmh NNE 4.5 mph7.2 kmh 30.66 in1038.3 mb 0.00 in0.0 mm 0.00 in/hr0.0 mm/hr 0.00 in0.0 mm
09:35 AM 36.5°F2.5°C 22.7°F-5.2°C 57% 1.6 mph N2.6 kmh N 4.5 mph7.2 kmh 30.66 in1038.3 mb 0.00 in0.0 mm 0.00 in/hr0.0 mm/hr 0.00 in0.0 mm
09:30 AM 36.7°F2.6°C 23.3°F-4.8°C 58% 1.6 mph N2.6 kmh N 4.5 mph7.2 kmh 30.66 in1038.3 mb 0.00 in0.0 mm 0.00 in/hr0.0 mm/hr 0.00 in0.0 mm
09:25 AM 36.7°F2.6°C 23.7°F-4.6°C 59% 2.2 mph NNE3.5 kmh NNE 4.5 mph7.2 kmh 30.65 in1037.9 mb 0.00 in0.0 mm 0.00 in/hr0.0 mm/hr 0.00 in0.0 mm
09:20 AM 35.6°F2.0°C 22.7°F-5.2°C 59% 2.2 mph N3.5 kmh N 4.5 mph7.2 kmh 30.65 in1037.9 mb 0.00 in0.0 mm 0.00 in/hr0.0 mm/hr 0.00 in0.0 mm
09:15 AM 35.1°F1.7°C 22.2°F-5.4°C 59% 1.6 mph N2.6 kmh N 4.5 mph7.2 kmh 30.65 in1037.9 mb 0.00 in0.0 mm 0.00 in/hr0.0 mm/hr 0.00 in0.0 mm
09:10 AM 34.9°F1.6°C 22.0°F-5.6°C 59% Calm Calm 4.5 mph7.2 kmh 30.65 in1037.9 mb 0.00 in0.0 mm 0.00 in/hr0.0 mm/hr 0.00 in0.0 mm
09:05 AM 34.9°F1.6°C 22.4°F-5.3°C 60% 2.2 mph NE3.5 kmh NE 4.5 mph7.2 kmh 30.65 in1037.9 mb 0.00 in0.0 mm 0.00 in/hr0.0 mm/hr 0.00 in0.0 mm
09:00 AM 34.7°F1.5°C 22.3°F-5.4°C 60% Calm Calm 3.1 mph5.0 kmh 30.65 in1037.9 mb 0.00 in0.0 mm 0.00 in/hr0.0 mm/hr 0.00 in0.0 mm
08:55 AM 34.5°F1.4°C 22.1°F-5.5°C 60% Calm Calm 4.5 mph7.2 kmh 30.66 in1038.3 mb 0.00 in0.0 mm 0.00 in/hr0.0 mm/hr 0.00 in0.0 mm
08:50 AM 34.5°F1.4°C 22.1°F-5.5°C 60% 1.6 mph NNE2.6 kmh NNE 4.5 mph7.2 kmh 30.67 in1038.6 mb 0.00 in0.0 mm 0.00 in/hr0.0 mm/hr 0.00 in0.0 mm
08:45 AM 34.5°F1.4°C 22.1°F-5.5°C 60% 0.7 mph NNE1.1 kmh NNE 4.5 mph7.2 kmh 30.66 in1038.3 mb 0.00 in0.0 mm 0.00 in/hr0.0 mm/hr 0.00 in0.0 mm
08:40 AM 34.3°F1.3°C 21.9°F-5.6°C 60% 0.7 mph NNE1.1 kmh NNE 4.5 mph7.2 kmh 30.66 in1038.3 mb 0.00 in0.0 mm 0.00 in/hr0.0 mm/hr 0.00 in0.0 mm
08:35 AM 34.2°F1.2°C 21.8°F-5.7°C 60% 0.7 mph NNE1.1 kmh NNE 3.8 mph6.1 kmh 30.66 in1038.3 mb 0.00 in0.0 mm 0.00 in/hr0.0 mm/hr 0.00 in0.0 mm
08:30 AM 34.2°F1.2°C 21.8°F-5.7°C 60% 0.7 mph NNE1.1 kmh NNE 6.0 mph9.7 kmh 30.65 in1037.9 mb 0.00 in0.0 mm 0.00 in/hr0.0 mm/hr 0.00 in0.0 mm
08:25 AM 33.8°F1.0°C 21.4°F-5.9°C 60% Calm Calm 6.0 mph9.7 kmh 30.65 in1037.9 mb 0.00 in0.0 mm 0.00 in/hr0.0 mm/hr 0.00 in0.0 mm
08:20 AM 33.8°F1.0°C 21.8°F-5.7°C 61% 1.6 mph N2.6 kmh N 5.4 mph8.7 kmh 30.66 in1038.3 mb 0.00 in0.0 mm 0.00 in/hr0.0 mm/hr 0.00 in0.0 mm
08:15 AM 33.6°F0.9°C 22.0°F-5.6°C 62% 1.6 mph N2.6 kmh N 5.4 mph8.7 kmh 30.66 in1038.3 mb 0.00 in0.0 mm 0.00 in/hr0.0 mm/hr 0.00 in0.0 mm
08:10 AM 33.3°F0.7°C 22.1°F-5.5°C 63% 0.7 mph N1.1 kmh N 3.8 mph6.1 kmh 30.66 in1038.3 mb 0.00 in0.0 mm 0.00 in/hr0.0 mm/hr 0.00 in0.0 mm
08:05 AM 32.9°F0.5°C 21.7°F-5.7°C 63% 0.7 mph N1.1 kmh N 3.8 mph6.1 kmh 30.67 in1038.6 mb 0.00 in0.0 mm 0.00 in/hr0.0 mm/hr 0.00 in0.0 mm
08:00 AM 32.5°F0.3°C 21.7°F-5.7°C 64% 2.2 mph N3.5 kmh N 4.5 mph7.2 kmh 30.67 in1038.6 mb 0.00 in0.0 mm 0.00 in/hr0.0 mm/hr 0.00 in0.0 mm
07:55 AM 32.5°F0.3°C 21.7°F-5.7°C 64% 1.6 mph N2.6 kmh N 4.5 mph7.2 kmh 30.66 in1038.3 mb 0.00 in0.0 mm 0.00 in/hr0.0 mm/hr 0.00 in0.0 mm
07:50 AM 32.4°F0.2°C 21.9°F-5.6°C 65% 0.7 mph N1.1 kmh N 2.2 mph3.5 kmh 30.66 in1038.3 mb 0.00 in0.0 mm 0.00 in/hr0.0 mm/hr 0.00 in0.0 mm
07:45 AM 32.2°F0.1°C 21.8°F-5.7°C 65% 1.6 mph NE2.6 kmh NE 2.2 mph3.5 kmh 30.65 in1037.9 mb 0.00 in0.0 mm 0.00 in/hr0.0 mm/hr 0.00 in0.0 mm
07:40 AM 32.0°F0.0°C 21.6°F-5.8°C 65% Calm Calm 2.2 mph3.5 kmh 30.65 in1037.9 mb 0.00 in0.0 mm 0.00 in/hr0.0 mm/hr 0.00 in0.0 mm
07:35 AM 31.6°F-0.2°C 21.6°F-5.8°C 66% Calm Calm 2.2 mph3.5 kmh 30.63 in1037.3 mb 0.00 in0.0 mm 0.00 in/hr0.0 mm/hr 0.00 in0.0 mm
07:30 AM 31.5°F-0.3°C 21.4°F-5.9°C 66% 0.7 mph NE1.1 kmh NE 1.6 mph2.6 kmh 30.63 in1037.3 mb 0.00 in0.0 mm 0.00 in/hr0.0 mm/hr 0.00 in0.0 mm
07:25 AM 31.3°F-0.4°C 21.3°F-5.9°C 66% Calm Calm 1.6 mph2.6 kmh 30.63 in1037.3 mb 0.00 in0.0 mm 0.00 in/hr0.0 mm/hr 0.00 in0.0 mm
07:20 AM 30.9°F-0.6°C 20.9°F-6.2°C 66% 0.7 mph E1.1 kmh E 1.6 mph2.6 kmh 30.63 in1037.3 mb 0.00 in0.0 mm 0.00 in/hr0.0 mm/hr 0.00 in0.0 mm
07:15 AM 30.7°F-0.7°C 20.8°F-6.2°C 66% Calm Calm 1.6 mph2.6 kmh 30.64 in1037.6 mb 0.00 in0.0 mm 0.00 in/hr0.0 mm/hr 0.00 in0.0 mm
07:10 AM 30.6°F-0.8°C 20.6°F-6.3°C 66% Calm Calm 1.6 mph2.6 kmh 30.62 in1036.9 mb 0.00 in0.0 mm 0.00 in/hr0.0 mm/hr 0.00 in0.0 mm
07:05 AM 30.6°F-0.8°C 20.6°F-6.3°C 66% 0.7 mph NE1.1 kmh NE 1.6 mph2.6 kmh 30.62 in1036.9 mb 0.00 in0.0 mm 0.00 in/hr0.0 mm/hr 0.00 in0.0 mm
07:00 AM 30.4°F-0.9°C 20.4°F-6.4°C 66% Calm Calm 1.6 mph2.6 kmh 30.62 in1036.9 mb 0.00 in0.0 mm 0.00 in/hr0.0 mm/hr 0.00 in0.0 mm
06:55 AM 30.4°F-0.9°C 20.8°F-6.2°C 67% Calm Calm 2.2 mph3.5 kmh 30.62 in1036.9 mb 0.00 in0.0 mm 0.00 in/hr0.0 mm/hr 0.00 in0.0 mm
06:50 AM 30.2°F-1.0°C 20.6°F-6.3°C 67% Calm Calm 2.2 mph3.5 kmh 30.62 in1036.9 mb 0.00 in0.0 mm 0.00 in/hr0.0 mm/hr 0.00 in0.0 mm
06:45 AM 30.0°F-1.1°C 21.1°F-6.1°C 69% Calm Calm 2.2 mph3.5 kmh 30.62 in1036.9 mb 0.00 in0.0 mm 0.00 in/hr0.0 mm/hr 0.00 in0.0 mm
06:40 AM 29.8°F-1.2°C 20.9°F-6.2°C 69% Calm Calm 2.2 mph3.5 kmh 30.62 in1036.9 mb 0.00 in0.0 mm 0.00 in/hr0.0 mm/hr 0.00 in0.0 mm
06:35 AM 29.7°F-1.3°C 20.8°F-6.2°C 69% Calm Calm 3.8 mph6.1 kmh 30.63 in1037.3 mb 0.00 in0.0 mm 0.00 in/hr0.0 mm/hr 0.00 in0.0 mm
06:30 AM 29.3°F-1.5°C 20.4°F-6.4°C 69% Calm Calm 3.8 mph6.1 kmh 30.62 in1036.9 mb 0.00 in0.0 mm 0.00 in/hr0.0 mm/hr 0.00 in0.0 mm
06:25 AM 29.1°F-1.6°C 20.3°F-6.5°C 69% 0.7 mph N1.1 kmh N 3.8 mph6.1 kmh 30.62 in1036.9 mb 0.00 in0.0 mm 0.00 in/hr0.0 mm/hr 0.00 in0.0 mm
06:20 AM 28.8°F-1.8°C 19.9°F-6.7°C 69% Calm Calm 2.2 mph3.5 kmh 30.63 in1037.3 mb 0.00 in0.0 mm 0.00 in/hr0.0 mm/hr 0.00 in0.0 mm
06:15 AM 28.4°F-2.0°C 19.6°F-6.9°C 69% Calm Calm 1.6 mph2.6 kmh 30.63 in1037.3 mb 0.00 in0.0 mm 0.00 in/hr0.0 mm/hr 0.00 in0.0 mm
06:10 AM 28.2°F-2.1°C 18.0°F-7.8°C 65% 0.7 mph NE1.1 kmh NE 1.6 mph2.6 kmh 30.62 in1036.9 mb 0.00 in0.0 mm 0.00 in/hr0.0 mm/hr 0.00 in0.0 mm
06:05 AM 28.0°F-2.2°C 17.8°F-7.9°C 65% Calm Calm 1.6 mph2.6 kmh 30.61 in1036.6 mb 0.00 in0.0 mm 0.00 in/hr0.0 mm/hr 0.00 in0.0 mm
06:00 AM 28.0°F-2.2°C 17.8°F-7.9°C 65% Calm Calm 1.6 mph2.6 kmh 30.62 in1036.9 mb 0.00 in0.0 mm 0.00 in/hr0.0 mm/hr 0.00 in0.0 mm
05:55 AM 27.9°F-2.3°C 17.7°F-7.9°C 65% Calm Calm 0.7 mph1.1 kmh 30.62 in1036.9 mb 0.00 in0.0 mm 0.00 in/hr0.0 mm/hr 0.00 in0.0 mm
05:50 AM 27.7°F-2.4°C 17.5°F-8.1°C 65% Calm Calm 0.7 mph1.1 kmh 30.63 in1037.3 mb 0.00 in0.0 mm 0.00 in/hr0.0 mm/hr 0.00 in0.0 mm
05:45 AM 27.7°F-2.4°C 17.5°F-8.1°C 65% Calm Calm 0.7 mph1.1 kmh 30.62 in1036.9 mb 0.00 in0.0 mm 0.00 in/hr0.0 mm/hr 0.00 in0.0 mm
05:40 AM 27.7°F-2.4°C 17.8°F-7.9°C 66% Calm Calm -- 30.63 in1037.3 mb 0.00 in0.0 mm 0.00 in/hr0.0 mm/hr 0.00 in0.0 mm
05:35 AM 27.7°F-2.4°C 17.8°F-7.9°C 66% Calm Calm 1.6 mph2.6 kmh 30.63 in1037.3 mb 0.00 in0.0 mm 0.00 in/hr0.0 mm/hr 0.00 in0.0 mm
05:30 AM 27.5°F-2.5°C 17.3°F-8.2°C 65% Calm Calm 1.6 mph2.6 kmh 30.63 in1037.3 mb 0.00 in0.0 mm 0.00 in/hr0.0 mm/hr 0.00 in0.0 mm
05:25 AM 27.5°F-2.5°C 17.3°F-8.2°C 65% Calm Calm 0.7 mph1.1 kmh 30.63 in1037.3 mb 0.00 in0.0 mm 0.00 in/hr0.0 mm/hr 0.00 in0.0 mm
05:20 AM 27.5°F-2.5°C 17.0°F-8.3°C 64% Calm Calm -- 30.63 in1037.3 mb 0.00 in0.0 mm 0.00 in/hr0.0 mm/hr 0.00 in0.0 mm
05:15 AM 27.5°F-2.5°C 17.0°F-8.3°C 64% Calm Calm -- 30.63 in1037.3 mb 0.00 in0.0 mm 0.00 in/hr0.0 mm/hr 0.00 in0.0 mm
05:10 AM 27.5°F-2.5°C 16.6°F-8.6°C 63% Calm Calm -- 30.62 in1036.9 mb 0.00 in0.0 mm 0.00 in/hr0.0 mm/hr 0.00 in0.0 mm
05:05 AM 27.9°F-2.3°C 16.9°F-8.4°C 63% Calm Calm -- 30.63 in1037.3 mb 0.00 in0.0 mm 0.00 in/hr0.0 mm/hr 0.00 in0.0 mm
05:00 AM 27.9°F-2.3°C 16.6°F-8.6°C 62% Calm Calm -- 30.63 in1037.3 mb 0.00 in0.0 mm 0.00 in/hr0.0 mm/hr 0.00 in0.0 mm
04:55 AM 27.9°F-2.3°C 16.2°F-8.8°C 61% Calm Calm -- 30.63 in1037.3 mb 0.00 in0.0 mm 0.00 in/hr0.0 mm/hr 0.00 in0.0 mm
04:50 AM 28.0°F-2.2°C 16.4°F-8.7°C 61% Calm Calm -- 30.63 in1037.3 mb 0.00 in0.0 mm 0.00 in/hr0.0 mm/hr 0.00 in0.0 mm
04:45 AM 28.2°F-2.1°C 16.2°F-8.8°C 60% Calm Calm -- 30.63 in1037.3 mb 0.00 in0.0 mm 0.00 in/hr0.0 mm/hr 0.00 in0.0 mm
04:40 AM 28.4°F-2.0°C 17.8°F-7.9°C 64% Calm Calm -- 30.62 in1036.9 mb 0.00 in0.0 mm 0.00 in/hr0.0 mm/hr 0.00 in0.0 mm
04:35 AM 28.8°F-1.8°C 18.2°F-7.7°C 64% Calm Calm -- 30.62 in1036.9 mb 0.00 in0.0 mm 0.00 in/hr0.0 mm/hr 0.00 in0.0 mm
04:30 AM 28.9°F-1.7°C 18.0°F-7.8°C 63% Calm Calm -- 30.62 in1036.9 mb 0.00 in0.0 mm 0.00 in/hr0.0 mm/hr 0.00 in0.0 mm
04:25 AM 29.1°F-1.6°C 17.8°F-7.9°C 62% Calm Calm -- 30.61 in1036.6 mb 0.00 in0.0 mm 0.00 in/hr0.0 mm/hr 0.00 in0.0 mm
04:20 AM 29.5°F-1.4°C 18.1°F-7.7°C 62% Calm Calm -- 30.62 in1036.9 mb 0.00 in0.0 mm 0.00 in/hr0.0 mm/hr 0.00 in0.0 mm
04:15 AM 29.8°F-1.2°C 18.4°F-7.6°C 62% Calm Calm -- 30.61 in1036.6 mb 0.00 in0.0 mm 0.00 in/hr0.0 mm/hr 0.00 in0.0 mm
04:10 AM 30.0°F-1.1°C 18.6°F-7.4°C 62% Calm Calm 1.6 mph2.6 kmh 30.61 in1036.6 mb 0.00 in0.0 mm 0.00 in/hr0.0 mm/hr 0.00 in0.0 mm
04:05 AM 30.2°F-1.0°C 18.0°F-7.8°C 60% Calm Calm 2.2 mph3.5 kmh 30.61 in1036.6 mb 0.00 in0.0 mm 0.00 in/hr0.0 mm/hr 0.00 in0.0 mm
04:00 AM 30.2°F-1.0°C 18.0°F-7.8°C 60% Calm Calm 2.2 mph3.5 kmh 30.61 in1036.6 mb 0.00 in0.0 mm 0.00 in/hr0.0 mm/hr 0.00 in0.0 mm
03:55 AM 30.4°F-0.9°C 18.2°F-7.7°C 60% 0.7 mph NW1.1 kmh NW 2.2 mph3.5 kmh 30.60 in1036.2 mb 0.00 in0.0 mm 0.00 in/hr0.0 mm/hr 0.00 in0.0 mm
03:50 AM 30.4°F-0.9°C 18.2°F-7.7°C 60% Calm Calm -- 30.60 in1036.2 mb 0.00 in0.0 mm 0.00 in/hr0.0 mm/hr 0.00 in0.0 mm
03:45 AM 30.4°F-0.9°C 18.2°F-7.7°C 60% Calm Calm 0.7 mph1.1 kmh 30.60 in1036.2 mb 0.00 in0.0 mm 0.00 in/hr0.0 mm/hr 0.00 in0.0 mm
03:40 AM 30.6°F-0.8°C 18.0°F-7.8°C 59% Calm Calm 1.6 mph2.6 kmh 30.60 in1036.2 mb 0.00 in0.0 mm 0.00 in/hr0.0 mm/hr 0.00 in0.0 mm
03:35 AM 30.6°F-0.8°C 18.0°F-7.8°C 59% Calm Calm 2.2 mph3.5 kmh 30.60 in1036.2 mb 0.00 in0.0 mm 0.00 in/hr0.0 mm/hr 0.00 in0.0 mm
03:30 AM 30.7°F-0.7°C 18.5°F-7.5°C 60% Calm Calm 2.2 mph3.5 kmh 30.59 in1035.9 mb 0.00 in0.0 mm 0.00 in/hr0.0 mm/hr 0.00 in0.0 mm
03:25 AM 30.7°F-0.7°C 18.1°F-7.7°C 59% Calm Calm 1.6 mph2.6 kmh 30.59 in1035.9 mb 0.00 in0.0 mm 0.00 in/hr0.0 mm/hr 0.00 in0.0 mm
03:20 AM 30.9°F-0.6°C 18.3°F-7.6°C 59% Calm Calm 3.1 mph5.0 kmh 30.59 in1035.9 mb 0.00 in0.0 mm 0.00 in/hr0.0 mm/hr 0.00 in0.0 mm
03:15 AM 30.9°F-0.6°C 18.7°F-7.4°C 60% 0.7 mph NW1.1 kmh NW 3.1 mph5.0 kmh 30.58 in1035.6 mb 0.00 in0.0 mm 0.00 in/hr0.0 mm/hr 0.00 in0.0 mm
03:10 AM 30.7°F-0.7°C 18.9°F-7.3°C 61% Calm Calm 1.6 mph2.6 kmh 30.58 in1035.6 mb 0.00 in0.0 mm 0.00 in/hr0.0 mm/hr 0.00 in0.0 mm
03:05 AM 30.7°F-0.7°C 18.9°F-7.3°C 61% Calm Calm 1.6 mph2.6 kmh 30.59 in1035.9 mb 0.00 in0.0 mm 0.00 in/hr0.0 mm/hr 0.00 in0.0 mm
03:00 AM 30.7°F-0.7°C 19.3°F-7.1°C 62% Calm Calm 1.6 mph2.6 kmh 30.59 in1035.9 mb 0.00 in0.0 mm 0.00 in/hr0.0 mm/hr 0.00 in0.0 mm
02:55 AM 30.7°F-0.7°C 19.7°F-6.8°C 63% Calm Calm 3.8 mph6.1 kmh 30.59 in1035.9 mb 0.00 in0.0 mm 0.00 in/hr0.0 mm/hr 0.00 in0.0 mm
02:50 AM 30.6°F-0.8°C 19.9°F-6.7°C 64% Calm Calm 3.8 mph6.1 kmh 30.59 in1035.9 mb 0.00 in0.0 mm 0.00 in/hr0.0 mm/hr 0.00 in0.0 mm
02:45 AM 30.4°F-0.9°C 20.1°F-6.6°C 65% Calm Calm 1.6 mph2.6 kmh 30.59 in1035.9 mb 0.00 in0.0 mm 0.00 in/hr0.0 mm/hr 0.00 in0.0 mm
02:40 AM 30.4°F-0.9°C 20.4°F-6.4°C 66% Calm Calm 2.2 mph3.5 kmh 30.59 in1035.9 mb 0.00 in0.0 mm 0.00 in/hr0.0 mm/hr 0.00 in0.0 mm
02:35 AM 30.2°F-1.0°C 20.6°F-6.3°C 67% 0.7 mph NNE1.1 kmh NNE 2.2 mph3.5 kmh 30.59 in1035.9 mb 0.00 in0.0 mm 0.00 in/hr0.0 mm/hr 0.00 in0.0 mm
02:30 AM 30.4°F-0.9°C 20.8°F-6.2°C 67% 0.7 mph NNE1.1 kmh NNE 2.2 mph3.5 kmh 30.59 in1035.9 mb 0.00 in0.0 mm 0.00 in/hr0.0 mm/hr 0.00 in0.0 mm
02:25 AM 30.4°F-0.9°C 20.8°F-6.2°C 67% 0.7 mph NNE1.1 kmh NNE 1.6 mph2.6 kmh 30.59 in1035.9 mb 0.00 in0.0 mm 0.00 in/hr0.0 mm/hr 0.00 in0.0 mm
02:20 AM 30.7°F-0.7°C 21.1°F-6.1°C 67% Calm Calm 3.1 mph5.0 kmh 30.60 in1036.2 mb 0.00 in0.0 mm 0.00 in/hr0.0 mm/hr 0.00 in0.0 mm
02:15 AM 30.9°F-0.6°C 21.3°F-5.9°C 67% Calm Calm 3.1 mph5.0 kmh 30.61 in1036.6 mb 0.00 in0.0 mm 0.00 in/hr0.0 mm/hr 0.00 in0.0 mm
02:10 AM 30.9°F-0.6°C 21.3°F-5.9°C 67% 2.2 mph NW3.5 kmh NW 3.1 mph5.0 kmh 30.61 in1036.6 mb 0.00 in0.0 mm 0.00 in/hr0.0 mm/hr 0.00 in0.0 mm
02:05 AM 30.9°F-0.6°C 21.3°F-5.9°C 67% 0.7 mph NW1.1 kmh NW 2.2 mph3.5 kmh 30.60 in1036.2 mb 0.00 in0.0 mm 0.00 in/hr0.0 mm/hr 0.00 in0.0 mm
02:00 AM 31.1°F-0.5°C 21.5°F-5.8°C 67% Calm Calm 4.5 mph7.2 kmh 30.61 in1036.6 mb 0.00 in0.0 mm 0.00 in/hr0.0 mm/hr 0.00 in0.0 mm
01:55 AM 31.1°F-0.5°C 21.5°F-5.8°C 67% Calm Calm 4.5 mph7.2 kmh 30.60 in1036.2 mb 0.00 in0.0 mm 0.00 in/hr0.0 mm/hr 0.00 in0.0 mm
01:50 AM 30.9°F-0.6°C 21.6°F-5.8°C 68% 3.1 mph N5.0 kmh N 4.5 mph7.2 kmh 30.60 in1036.2 mb 0.00 in0.0 mm 0.00 in/hr0.0 mm/hr 0.00 in0.0 mm
01:45 AM 30.9°F-0.6°C 21.6°F-5.8°C 68% 0.7 mph N1.1 kmh N 4.5 mph7.2 kmh 30.60 in1036.2 mb 0.00 in0.0 mm 0.00 in/hr0.0 mm/hr 0.00 in0.0 mm
01:40 AM 30.7°F-0.7°C 21.8°F-5.7°C 69% 0.7 mph N1.1 kmh N 4.5 mph7.2 kmh 30.61 in1036.6 mb 0.00 in0.0 mm 0.00 in/hr0.0 mm/hr 0.00 in0.0 mm
01:35 AM 30.6°F-0.8°C 21.6°F-5.8°C 69% 0.7 mph NNW1.1 kmh NNW 4.5 mph7.2 kmh 30.60 in1036.2 mb 0.00 in0.0 mm 0.00 in/hr0.0 mm/hr 0.00 in0.0 mm
01:30 AM 30.6°F-0.8°C 22.3°F-5.4°C 71% Calm Calm 4.5 mph7.2 kmh 30.61 in1036.6 mb 0.00 in0.0 mm 0.00 in/hr0.0 mm/hr 0.00 in0.0 mm
01:25 AM 30.2°F-1.0°C 22.0°F-5.6°C 71% 1.6 mph NW2.6 kmh NW 4.5 mph7.2 kmh 30.60 in1036.2 mb 0.00 in0.0 mm 0.00 in/hr0.0 mm/hr 0.00 in0.0 mm
01:20 AM 29.8°F-1.2°C 21.9°F-5.6°C 72% 0.7 mph N1.1 kmh N 1.6 mph2.6 kmh 30.60 in1036.2 mb 0.00 in0.0 mm 0.00 in/hr0.0 mm/hr 0.00 in0.0 mm
01:15 AM 29.7°F-1.3°C 22.1°F-5.5°C 73% Calm Calm 3.8 mph6.1 kmh 30.60 in1036.2 mb 0.00 in0.0 mm 0.00 in/hr0.0 mm/hr 0.00 in0.0 mm
01:10 AM 29.3°F-1.5°C 21.7°F-5.7°C 73% 0.7 mph N1.1 kmh N 3.8 mph6.1 kmh 30.60 in1036.2 mb 0.00 in0.0 mm 0.00 in/hr0.0 mm/hr 0.00 in0.0 mm
01:05 AM 28.8°F-1.8°C 21.2°F-6.0°C 73% 0.7 mph NNW1.1 kmh NNW 3.8 mph6.1 kmh 30.61 in1036.6 mb 0.00 in0.0 mm 0.00 in/hr0.0 mm/hr 0.00 in0.0 mm
01:00 AM 28.6°F-1.9°C 21.1°F-6.1°C 73% Calm Calm 3.8 mph6.1 kmh 30.61 in1036.6 mb 0.00 in0.0 mm 0.00 in/hr0.0 mm/hr 0.00 in0.0 mm
12:55 AM 28.2°F-2.1°C 19.0°F-7.2°C 68% Calm Calm -- 30.61 in1036.6 mb 0.00 in0.0 mm 0.00 in/hr0.0 mm/hr 0.00 in0.0 mm
12:50 AM 28.2°F-2.1°C 19.0°F-7.2°C 68% Calm Calm -- 30.60 in1036.2 mb 0.00 in0.0 mm 0.00 in/hr0.0 mm/hr 0.00 in0.0 mm
12:45 AM 28.4°F-2.0°C 20.6°F-6.3°C 72% Calm Calm 0.7 mph1.1 kmh 30.60 in1036.2 mb 0.00 in0.0 mm 0.00 in/hr0.0 mm/hr 0.00 in0.0 mm
12:40 AM 28.4°F-2.0°C 20.6°F-6.3°C 72% Calm Calm 0.7 mph1.1 kmh 30.59 in1035.9 mb 0.00 in0.0 mm 0.00 in/hr0.0 mm/hr 0.00 in0.0 mm
12:35 AM 28.6°F-1.9°C 20.4°F-6.4°C 71% Calm Calm 0.7 mph1.1 kmh 30.59 in1035.9 mb 0.00 in0.0 mm 0.00 in/hr0.0 mm/hr 0.00 in0.0 mm
12:30 AM 28.8°F-1.8°C 20.6°F-6.3°C 71% Calm Calm 0.7 mph1.1 kmh 30.60 in1036.2 mb 0.00 in0.0 mm 0.00 in/hr0.0 mm/hr 0.00 in0.0 mm
12:25 AM 28.8°F-1.8°C 20.6°F-6.3°C 71% Calm Calm 0.7 mph1.1 kmh 30.59 in1035.9 mb 0.00 in0.0 mm 0.00 in/hr0.0 mm/hr 0.00 in0.0 mm
12:20 AM 28.8°F-1.8°C 20.2°F-6.6°C 70% Calm Calm -- 30.59 in1035.9 mb 0.00 in0.0 mm 0.00 in/hr0.0 mm/hr 0.00 in0.0 mm
12:15 AM 28.8°F-1.8°C 19.9°F-6.7°C 69% Calm Calm -- 30.59 in1035.9 mb 0.00 in0.0 mm 0.00 in/hr0.0 mm/hr 0.00 in0.0 mm
12:10 AM 28.6°F-1.9°C 19.0°F-7.2°C 67% Calm Calm -- 30.60 in1036.2 mb 0.00 in0.0 mm 0.00 in/hr0.0 mm/hr 0.00 in0.0 mm
12:05 AM 28.6°F-1.9°C 19.0°F-7.2°C 67% Calm Calm -- 30.60 in1036.2 mb 0.00 in0.0 mm 0.00 in/hr0.0 mm/hr 0.00 in0.0 mm
12:00 AM 28.6°F-1.9°C 18.7°F-7.4°C 66% Calm Calm -- 30.59 in1035.9 mb 0.00 in0.0 mm 0.00 in/hr0.0 mm/hr 0.00 in0.0 mm